sensor_id;sensor_type;location;lat;lon;timestamp;P1;durP1;ratioP1;P2;durP2;ratioP2
76865;SDS011;66647;52.124;5.416;2024-01-25T00:00:28;12.25;;;0.98;;
76865;SDS011;66647;52.124;5.416;2024-01-25T00:02:55;21.92;;;2.42;;
76865;SDS011;66647;52.124;5.416;2024-01-25T00:05:21;13.15;;;1.08;;
76865;SDS011;66647;52.124;5.416;2024-01-25T00:07:49;12.95;;;1.20;;
76865;SDS011;66647;52.124;5.416;2024-01-25T00:10:17;16.42;;;1.63;;
76865;SDS011;66647;52.124;5.416;2024-01-25T00:12:45;17.00;;;1.17;;
76865;SDS011;66647;52.124;5.416;2024-01-25T00:15:12;13.95;;;0.95;;
76865;SDS011;66647;52.124;5.416;2024-01-25T00:17:39;12.90;;;0.85;;
76865;SDS011;66647;52.124;5.416;2024-01-25T00:20:08;12.15;;;1.35;;
76865;SDS011;66647;52.124;5.416;2024-01-25T00:22:36;18.42;;;1.27;;
76865;SDS011;66647;52.124;5.416;2024-01-25T00:25:04;13.43;;;1.20;;
76865;SDS011;66647;52.124;5.416;2024-01-25T00:27:32;17.38;;;1.13;;
76865;SDS011;66647;52.124;5.416;2024-01-25T00:29:58;22.25;;;2.20;;
76865;SDS011;66647;52.124;5.416;2024-01-25T00:32:25;15.02;;;1.35;;
76865;SDS011;66647;52.124;5.416;2024-01-25T00:34:52;18.60;;;1.80;;
76865;SDS011;66647;52.124;5.416;2024-01-25T00:37:21;22.55;;;1.50;;
76865;SDS011;66647;52.124;5.416;2024-01-25T00:39:48;8.60;;;0.47;;
76865;SDS011;66647;52.124;5.416;2024-01-25T00:42:16;13.70;;;0.75;;
76865;SDS011;66647;52.124;5.416;2024-01-25T00:44:46;13.25;;;1.50;;
76865;SDS011;66647;52.124;5.416;2024-01-25T00:47:14;12.10;;;0.80;;
76865;SDS011;66647;52.124;5.416;2024-01-25T00:49:41;12.20;;;0.35;;
76865;SDS011;66647;52.124;5.416;2024-01-25T00:52:09;12.60;;;0.70;;
76865;SDS011;66647;52.124;5.416;2024-01-25T00:54:36;12.18;;;0.63;;
76865;SDS011;66647;52.124;5.416;2024-01-25T00:57:03;17.67;;;0.90;;
76865;SDS011;66647;52.124;5.416;2024-01-25T00:59:31;13.85;;;1.23;;
76865;SDS011;66647;52.124;5.416;2024-01-25T01:02:00;9.73;;;0.95;;
76865;SDS011;66647;52.124;5.416;2024-01-25T01:04:34;21.70;;;0.98;;
76865;SDS011;66647;52.124;5.416;2024-01-25T01:07:13;13.73;;;0.52;;
76865;SDS011;66647;52.124;5.416;2024-01-25T01:09:41;10.90;;;1.00;;
76865;SDS011;66647;52.124;5.416;2024-01-25T01:12:09;13.93;;;1.23;;
76865;SDS011;66647;52.124;5.416;2024-01-25T01:14:36;17.65;;;1.05;;
76865;SDS011;66647;52.124;5.416;2024-01-25T01:17:03;17.05;;;0.57;;
76865;SDS011;66647;52.124;5.416;2024-01-25T01:19:32;16.20;;;1.10;;
76865;SDS011;66647;52.124;5.416;2024-01-25T01:22:00;16.15;;;1.35;;
76865;SDS011;66647;52.124;5.416;2024-01-25T01:24:27;15.13;;;0.82;;
76865;SDS011;66647;52.124;5.416;2024-01-25T01:26:54;11.75;;;1.00;;
76865;SDS011;66647;52.124;5.416;2024-01-25T01:29:24;11.05;;;0.85;;
76865;SDS011;66647;52.124;5.416;2024-01-25T01:31:51;12.25;;;1.23;;
76865;SDS011;66647;52.124;5.416;2024-01-25T01:34:18;13.90;;;0.57;;
76865;SDS011;66647;52.124;5.416;2024-01-25T01:36:47;12.20;;;1.52;;
76865;SDS011;66647;52.124;5.416;2024-01-25T01:39:14;8.30;;;0.95;;
76865;SDS011;66647;52.124;5.416;2024-01-25T01:41:40;12.80;;;0.98;;
76865;SDS011;66647;52.124;5.416;2024-01-25T01:44:07;16.98;;;0.65;;
76865;SDS011;66647;52.124;5.416;2024-01-25T01:46:36;18.65;;;1.42;;
76865;SDS011;66647;52.124;5.416;2024-01-25T01:49:04;13.57;;;1.20;;
76865;SDS011;66647;52.124;5.416;2024-01-25T01:51:31;17.40;;;1.88;;
76865;SDS011;66647;52.124;5.416;2024-01-25T01:54:00;15.77;;;1.02;;
76865;SDS011;66647;52.124;5.416;2024-01-25T01:56:31;13.80;;;1.40;;
76865;SDS011;66647;52.124;5.416;2024-01-25T01:59:00;13.73;;;1.10;;
76865;SDS011;66647;52.124;5.416;2024-01-25T02:01:28;13.77;;;1.00;;
76865;SDS011;66647;52.124;5.416;2024-01-25T02:03:55;13.55;;;0.88;;
76865;SDS011;66647;52.124;5.416;2024-01-25T02:08:54;14.05;;;0.73;;
76865;SDS011;66647;52.124;5.416;2024-01-25T02:11:22;14.15;;;2.08;;
76865;SDS011;66647;52.124;5.416;2024-01-25T02:13:51;10.90;;;0.77;;
76865;SDS011;66647;52.124;5.416;2024-01-25T02:16:18;11.48;;;1.65;;
76865;SDS011;66647;52.124;5.416;2024-01-25T02:18:48;12.20;;;0.52;;
76865;SDS011;66647;52.124;5.416;2024-01-25T02:21:16;15.05;;;0.77;;
76865;SDS011;66647;52.124;5.416;2024-01-25T02:23:44;12.98;;;0.98;;
76865;SDS011;66647;52.124;5.416;2024-01-25T02:26:12;13.93;;;1.30;;
76865;SDS011;66647;52.124;5.416;2024-01-25T02:28:38;14.23;;;0.77;;
76865;SDS011;66647;52.124;5.416;2024-01-25T02:31:05;12.73;;;1.20;;
76865;SDS011;66647;52.124;5.416;2024-01-25T02:33:32;13.82;;;1.35;;
76865;SDS011;66647;52.124;5.416;2024-01-25T02:35:58;15.88;;;1.13;;
76865;SDS011;66647;52.124;5.416;2024-01-25T02:38:26;17.48;;;2.15;;
76865;SDS011;66647;52.124;5.416;2024-01-25T02:40:53;10.13;;;0.43;;
76865;SDS011;66647;52.124;5.416;2024-01-25T02:43:22;18.90;;;1.40;;
76865;SDS011;66647;52.124;5.416;2024-01-25T02:45:49;9.57;;;1.38;;
76865;SDS011;66647;52.124;5.416;2024-01-25T02:48:17;12.07;;;0.75;;
76865;SDS011;66647;52.124;5.416;2024-01-25T02:50:44;12.63;;;0.55;;
76865;SDS011;66647;52.124;5.416;2024-01-25T02:53:11;15.85;;;1.15;;
76865;SDS011;66647;52.124;5.416;2024-01-25T02:55:39;12.57;;;1.63;;
76865;SDS011;66647;52.124;5.416;2024-01-25T02:58:06;11.48;;;0.65;;
76865;SDS011;66647;52.124;5.416;2024-01-25T03:00:32;14.48;;;1.40;;
76865;SDS011;66647;52.124;5.416;2024-01-25T03:02:59;13.35;;;1.60;;
76865;SDS011;66647;52.124;5.416;2024-01-25T03:05:27;8.10;;;0.90;;
76865;SDS011;66647;52.124;5.416;2024-01-25T03:07:54;6.05;;;0.55;;
76865;SDS011;66647;52.124;5.416;2024-01-25T03:10:21;13.38;;;1.10;;
76865;SDS011;66647;52.124;5.416;2024-01-25T03:12:48;12.85;;;0.85;;
76865;SDS011;66647;52.124;5.416;2024-01-25T03:15:14;13.30;;;1.77;;
76865;SDS011;66647;52.124;5.416;2024-01-25T03:17:41;11.57;;;0.65;;
76865;SDS011;66647;52.124;5.416;2024-01-25T03:20:08;14.82;;;0.75;;
76865;SDS011;66647;52.124;5.416;2024-01-25T03:22:36;10.38;;;1.13;;
76865;SDS011;66647;52.124;5.416;2024-01-25T03:25:02;10.48;;;0.95;;
76865;SDS011;66647;52.124;5.416;2024-01-25T03:27:29;18.05;;;1.13;;
76865;SDS011;66647;52.124;5.416;2024-01-25T03:29:59;15.10;;;2.05;;
76865;SDS011;66647;52.124;5.416;2024-01-25T03:32:26;16.83;;;0.80;;
76865;SDS011;66647;52.124;5.416;2024-01-25T03:34:55;12.40;;;0.65;;
76865;SDS011;66647;52.124;5.416;2024-01-25T03:37:22;11.85;;;0.50;;
76865;SDS011;66647;52.124;5.416;2024-01-25T03:39:49;12.32;;;0.80;;
76865;SDS011;66647;52.124;5.416;2024-01-25T03:42:16;11.15;;;0.60;;
76865;SDS011;66647;52.124;5.416;2024-01-25T03:44:42;10.50;;;0.75;;
76865;SDS011;66647;52.124;5.416;2024-01-25T03:47:12;15.52;;;0.52;;
76865;SDS011;66647;52.124;5.416;2024-01-25T03:49:39;8.90;;;0.77;;
76865;SDS011;66647;52.124;5.416;2024-01-25T03:52:06;15.85;;;1.25;;
76865;SDS011;66647;52.124;5.416;2024-01-25T03:54:33;13.35;;;1.05;;
76865;SDS011;66647;52.124;5.416;2024-01-25T03:57:01;13.25;;;0.82;;
76865;SDS011;66647;52.124;5.416;2024-01-25T03:59:33;8.93;;;0.30;;
76865;SDS011;66647;52.124;5.416;2024-01-25T04:02:00;11.52;;;0.63;;
76865;SDS011;66647;52.124;5.416;2024-01-25T04:04:26;13.00;;;0.52;;
76865;SDS011;66647;52.124;5.416;2024-01-25T04:06:53;6.45;;;0.60;;
76865;SDS011;66647;52.124;5.416;2024-01-25T04:09:20;12.57;;;0.85;;
76865;SDS011;66647;52.124;5.416;2024-01-25T04:11:47;8.65;;;1.02;;
76865;SDS011;66647;52.124;5.416;2024-01-25T04:14:13;11.13;;;1.63;;
76865;SDS011;66647;52.124;5.416;2024-01-25T04:16:42;14.75;;;1.85;;
76865;SDS011;66647;52.124;5.416;2024-01-25T04:19:08;9.50;;;1.48;;
76865;SDS011;66647;52.124;5.416;2024-01-25T04:21:39;14.95;;;0.52;;
76865;SDS011;66647;52.124;5.416;2024-01-25T04:24:08;13.68;;;0.90;;
76865;SDS011;66647;52.124;5.416;2024-01-25T04:26:34;18.50;;;1.35;;
76865;SDS011;66647;52.124;5.416;2024-01-25T04:29:01;10.55;;;1.00;;
76865;SDS011;66647;52.124;5.416;2024-01-25T04:31:28;8.27;;;0.63;;
76865;SDS011;66647;52.124;5.416;2024-01-25T04:33:55;9.98;;;1.35;;
76865;SDS011;66647;52.124;5.416;2024-01-25T04:36:22;15.52;;;1.70;;
76865;SDS011;66647;52.124;5.416;2024-01-25T04:38:52;12.70;;;0.52;;
76865;SDS011;66647;52.124;5.416;2024-01-25T04:41:19;8.00;;;0.63;;
76865;SDS011;66647;52.124;5.416;2024-01-25T04:43:46;11.73;;;1.05;;
76865;SDS011;66647;52.124;5.416;2024-01-25T04:46:13;11.95;;;0.22;;
76865;SDS011;66647;52.124;5.416;2024-01-25T04:48:40;17.98;;;1.92;;
76865;SDS011;66647;52.124;5.416;2024-01-25T04:51:07;11.63;;;1.10;;
76865;SDS011;66647;52.124;5.416;2024-01-25T04:53:34;13.38;;;0.80;;
76865;SDS011;66647;52.124;5.416;2024-01-25T04:56:01;8.93;;;0.98;;
76865;SDS011;66647;52.124;5.416;2024-01-25T04:58:32;21.73;;;1.05;;
76865;SDS011;66647;52.124;5.416;2024-01-25T05:01:01;17.08;;;0.80;;
76865;SDS011;66647;52.124;5.416;2024-01-25T05:03:27;12.00;;;1.30;;
76865;SDS011;66647;52.124;5.416;2024-01-25T05:05:54;15.65;;;1.63;;
76865;SDS011;66647;52.124;5.416;2024-01-25T05:08:21;8.25;;;0.68;;
76865;SDS011;66647;52.124;5.416;2024-01-25T05:10:48;11.15;;;1.02;;
76865;SDS011;66647;52.124;5.416;2024-01-25T05:13:15;15.05;;;0.70;;
76865;SDS011;66647;52.124;5.416;2024-01-25T05:15:41;16.38;;;1.45;;
76865;SDS011;66647;52.124;5.416;2024-01-25T05:18:08;12.43;;;0.35;;
76865;SDS011;66647;52.124;5.416;2024-01-25T05:20:37;9.65;;;1.58;;
76865;SDS011;66647;52.124;5.416;2024-01-25T05:23:04;14.38;;;1.05;;
76865;SDS011;66647;52.124;5.416;2024-01-25T05:25:31;17.00;;;0.90;;
76865;SDS011;66647;52.124;5.416;2024-01-25T05:28:03;11.35;;;1.13;;
76865;SDS011;66647;52.124;5.416;2024-01-25T05:30:30;16.63;;;1.27;;
76865;SDS011;66647;52.124;5.416;2024-01-25T05:33:00;18.42;;;1.63;;
76865;SDS011;66647;52.124;5.416;2024-01-25T05:35:28;11.93;;;1.13;;
76865;SDS011;66647;52.124;5.416;2024-01-25T05:37:56;6.85;;;0.40;;
76865;SDS011;66647;52.124;5.416;2024-01-25T05:40:22;15.48;;;2.28;;
76865;SDS011;66647;52.124;5.416;2024-01-25T05:42:49;12.10;;;1.27;;
76865;SDS011;66647;52.124;5.416;2024-01-25T05:45:17;11.82;;;0.65;;
76865;SDS011;66647;52.124;5.416;2024-01-25T05:47:46;20.08;;;2.35;;
76865;SDS011;66647;52.124;5.416;2024-01-25T05:50:13;13.98;;;1.08;;
76865;SDS011;66647;52.124;5.416;2024-01-25T05:52:44;12.70;;;1.58;;
76865;SDS011;66647;52.124;5.416;2024-01-25T05:55:10;17.55;;;1.63;;
76865;SDS011;66647;52.124;5.416;2024-01-25T05:57:37;11.93;;;0.70;;
76865;SDS011;66647;52.124;5.416;2024-01-25T06:00:05;16.52;;;1.00;;
76865;SDS011;66647;52.124;5.416;2024-01-25T06:02:36;15.60;;;0.80;;
76865;SDS011;66647;52.124;5.416;2024-01-25T06:05:03;12.48;;;1.48;;
76865;SDS011;66647;52.124;5.416;2024-01-25T06:07:30;13.45;;;0.85;;
76865;SDS011;66647;52.124;5.416;2024-01-25T06:09:57;14.32;;;1.30;;
76865;SDS011;66647;52.124;5.416;2024-01-25T06:12:24;6.60;;;0.73;;
76865;SDS011;66647;52.124;5.416;2024-01-25T06:14:51;14.45;;;1.00;;
76865;SDS011;66647;52.124;5.416;2024-01-25T06:17:21;11.55;;;1.30;;
76865;SDS011;66647;52.124;5.416;2024-01-25T06:19:50;16.77;;;0.80;;
76865;SDS011;66647;52.124;5.416;2024-01-25T06:22:18;12.40;;;0.43;;
76865;SDS011;66647;52.124;5.416;2024-01-25T06:24:46;11.18;;;0.65;;
76865;SDS011;66647;52.124;5.416;2024-01-25T06:27:15;11.48;;;1.17;;
76865;SDS011;66647;52.124;5.416;2024-01-25T06:29:44;14.25;;;0.60;;
76865;SDS011;66647;52.124;5.416;2024-01-25T06:32:10;13.23;;;1.02;;
76865;SDS011;66647;52.124;5.416;2024-01-25T06:34:47;13.32;;;1.55;;
76865;SDS011;66647;52.124;5.416;2024-01-25T06:37:14;14.60;;;1.67;;
76865;SDS011;66647;52.124;5.416;2024-01-25T06:39:45;13.45;;;0.75;;
76865;SDS011;66647;52.124;5.416;2024-01-25T06:42:12;19.80;;;2.00;;
76865;SDS011;66647;52.124;5.416;2024-01-25T06:44:38;20.85;;;1.60;;
76865;SDS011;66647;52.124;5.416;2024-01-25T06:47:05;11.77;;;1.48;;
76865;SDS011;66647;52.124;5.416;2024-01-25T06:49:32;14.02;;;0.73;;
76865;SDS011;66647;52.124;5.416;2024-01-25T06:51:58;15.25;;;0.98;;
76865;SDS011;66647;52.124;5.416;2024-01-25T06:54:25;12.00;;;1.85;;
76865;SDS011;66647;52.124;5.416;2024-01-25T06:56:52;17.05;;;1.58;;
76865;SDS011;66647;52.124;5.416;2024-01-25T06:59:22;14.70;;;1.75;;
76865;SDS011;66647;52.124;5.416;2024-01-25T07:01:53;12.25;;;2.88;;
76865;SDS011;66647;52.124;5.416;2024-01-25T07:04:21;18.50;;;2.05;;
76865;SDS011;66647;52.124;5.416;2024-01-25T07:06:48;21.33;;;2.78;;
76865;SDS011;66647;52.124;5.416;2024-01-25T07:09:18;14.93;;;1.70;;
76865;SDS011;66647;52.124;5.416;2024-01-25T07:11:45;16.33;;;2.72;;
76865;SDS011;66647;52.124;5.416;2024-01-25T07:14:12;15.13;;;1.42;;
76865;SDS011;66647;52.124;5.416;2024-01-25T07:16:39;11.55;;;2.40;;
76865;SDS011;66647;52.124;5.416;2024-01-25T07:19:07;15.43;;;1.15;;
76865;SDS011;66647;52.124;5.416;2024-01-25T07:21:34;11.68;;;1.80;;
76865;SDS011;66647;52.124;5.416;2024-01-25T07:24:03;12.75;;;1.83;;
76865;SDS011;66647;52.124;5.416;2024-01-25T07:26:30;17.50;;;1.55;;
76865;SDS011;66647;52.124;5.416;2024-01-25T07:28:57;14.40;;;1.70;;
76865;SDS011;66647;52.124;5.416;2024-01-25T07:31:26;12.82;;;2.28;;
76865;SDS011;66647;52.124;5.416;2024-01-25T07:33:55;7.95;;;1.23;;
76865;SDS011;66647;52.124;5.416;2024-01-25T07:36:23;10.07;;;2.60;;
76865;SDS011;66647;52.124;5.416;2024-01-25T07:38:51;12.80;;;1.65;;
76865;SDS011;66647;52.124;5.416;2024-01-25T07:41:17;10.45;;;1.20;;
76865;SDS011;66647;52.124;5.416;2024-01-25T07:43:44;16.15;;;1.45;;
76865;SDS011;66647;52.124;5.416;2024-01-25T07:46:11;17.45;;;2.35;;
76865;SDS011;66647;52.124;5.416;2024-01-25T07:48:42;14.07;;;2.00;;
76865;SDS011;66647;52.124;5.416;2024-01-25T07:51:10;24.27;;;1.45;;
76865;SDS011;66647;52.124;5.416;2024-01-25T07:53:39;11.05;;;2.28;;
76865;SDS011;66647;52.124;5.416;2024-01-25T07:56:08;10.15;;;2.75;;
76865;SDS011;66647;52.124;5.416;2024-01-25T07:58:38;12.25;;;1.20;;
76865;SDS011;66647;52.124;5.416;2024-01-25T08:01:05;11.65;;;1.77;;
76865;SDS011;66647;52.124;5.416;2024-01-25T08:03:34;11.60;;;1.75;;
76865;SDS011;66647;52.124;5.416;2024-01-25T08:06:01;17.67;;;1.52;;
76865;SDS011;66647;52.124;5.416;2024-01-25T08:08:29;7.07;;;1.08;;
76865;SDS011;66647;52.124;5.416;2024-01-25T08:10:56;6.60;;;0.90;;
76865;SDS011;66647;52.124;5.416;2024-01-25T08:13:23;11.23;;;1.85;;
76865;SDS011;66647;52.124;5.416;2024-01-25T08:15:50;13.38;;;1.58;;
76865;SDS011;66647;52.124;5.416;2024-01-25T08:18:19;14.88;;;2.58;;
76865;SDS011;66647;52.124;5.416;2024-01-25T08:20:49;16.27;;;2.90;;
76865;SDS011;66647;52.124;5.416;2024-01-25T08:23:20;16.17;;;2.13;;
76865;SDS011;66647;52.124;5.416;2024-01-25T08:25:48;14.27;;;3.10;;
76865;SDS011;66647;52.124;5.416;2024-01-25T08:28:15;15.55;;;3.03;;
76865;SDS011;66647;52.124;5.416;2024-01-25T08:30:42;20.60;;;5.22;;
76865;SDS011;66647;52.124;5.416;2024-01-25T08:35:39;16.88;;;1.95;;
76865;SDS011;66647;52.124;5.416;2024-01-25T08:38:08;32.20;;;4.88;;
76865;SDS011;66647;52.124;5.416;2024-01-25T08:40:34;39.75;;;10.68;;
76865;SDS011;66647;52.124;5.416;2024-01-25T08:43:01;46.35;;;13.25;;
76865;SDS011;66647;52.124;5.416;2024-01-25T08:45:28;37.25;;;9.68;;
76865;SDS011;66647;52.124;5.416;2024-01-25T08:47:55;25.90;;;6.85;;
76865;SDS011;66647;52.124;5.416;2024-01-25T08:50:22;31.63;;;7.63;;
76865;SDS011;66647;52.124;5.416;2024-01-25T08:52:52;20.55;;;3.53;;
76865;SDS011;66647;52.124;5.416;2024-01-25T08:55:19;20.15;;;1.70;;
76865;SDS011;66647;52.124;5.416;2024-01-25T08:57:48;25.92;;;4.22;;
76865;SDS011;66647;52.124;5.416;2024-01-25T09:00:17;16.55;;;1.40;;
76865;SDS011;66647;52.124;5.416;2024-01-25T09:02:46;10.80;;;1.15;;
76865;SDS011;66647;52.124;5.416;2024-01-25T09:05:12;15.68;;;2.00;;
76865;SDS011;66647;52.124;5.416;2024-01-25T09:07:40;28.80;;;6.28;;
76865;SDS011;66647;52.124;5.416;2024-01-25T09:10:08;31.17;;;4.57;;
76865;SDS011;66647;52.124;5.416;2024-01-25T09:12:36;20.83;;;2.38;;
76865;SDS011;66647;52.124;5.416;2024-01-25T09:15:03;13.90;;;2.38;;
76865;SDS011;66647;52.124;5.416;2024-01-25T09:17:31;26.70;;;4.95;;
76865;SDS011;66647;52.124;5.416;2024-01-25T09:19:58;25.58;;;6.28;;
76865;SDS011;66647;52.124;5.416;2024-01-25T09:22:26;18.40;;;2.30;;
76865;SDS011;66647;52.124;5.416;2024-01-25T09:24:53;17.70;;;2.17;;
76865;SDS011;66647;52.124;5.416;2024-01-25T09:27:20;15.68;;;1.63;;
76865;SDS011;66647;52.124;5.416;2024-01-25T09:29:47;21.90;;;2.80;;
76865;SDS011;66647;52.124;5.416;2024-01-25T09:32:14;56.75;;;14.98;;
76865;SDS011;66647;52.124;5.416;2024-01-25T09:34:42;37.70;;;10.02;;
76865;SDS011;66647;52.124;5.416;2024-01-25T09:37:13;45.22;;;14.43;;
76865;SDS011;66647;52.124;5.416;2024-01-25T09:39:41;34.03;;;11.40;;
76865;SDS011;66647;52.124;5.416;2024-01-25T09:42:09;25.52;;;7.20;;
76865;SDS011;66647;52.124;5.416;2024-01-25T09:44:36;17.45;;;4.10;;
76865;SDS011;66647;52.124;5.416;2024-01-25T09:47:05;18.30;;;5.13;;
76865;SDS011;66647;52.124;5.416;2024-01-25T09:49:33;18.63;;;3.00;;
76865;SDS011;66647;52.124;5.416;2024-01-25T09:52:05;17.38;;;2.05;;
76865;SDS011;66647;52.124;5.416;2024-01-25T09:54:35;42.97;;;13.15;;
76865;SDS011;66647;52.124;5.416;2024-01-25T09:57:06;17.40;;;2.55;;
76865;SDS011;66647;52.124;5.416;2024-01-25T09:59:37;36.28;;;8.45;;
76865;SDS011;66647;52.124;5.416;2024-01-25T10:02:04;35.80;;;8.60;;
76865;SDS011;66647;52.124;5.416;2024-01-25T10:04:33;24.65;;;8.18;;
76865;SDS011;66647;52.124;5.416;2024-01-25T10:07:00;27.05;;;6.25;;
76865;SDS011;66647;52.124;5.416;2024-01-25T10:09:26;20.83;;;4.97;;
76865;SDS011;66647;52.124;5.416;2024-01-25T10:11:53;17.90;;;4.45;;
76865;SDS011;66647;52.124;5.416;2024-01-25T10:14:43;19.45;;;5.00;;
76865;SDS011;66647;52.124;5.416;2024-01-25T10:17:09;24.15;;;9.25;;
76865;SDS011;66647;52.124;5.416;2024-01-25T10:19:36;22.98;;;4.82;;
76865;SDS011;66647;52.124;5.416;2024-01-25T10:22:06;16.65;;;4.20;;
76865;SDS011;66647;52.124;5.416;2024-01-25T10:24:34;18.90;;;2.47;;
76865;SDS011;66647;52.124;5.416;2024-01-25T10:27:03;17.95;;;2.58;;
76865;SDS011;66647;52.124;5.416;2024-01-25T10:29:31;18.27;;;2.90;;
76865;SDS011;66647;52.124;5.416;2024-01-25T10:31:58;15.73;;;3.38;;
76865;SDS011;66647;52.124;5.416;2024-01-25T10:34:25;18.80;;;2.25;;
76865;SDS011;66647;52.124;5.416;2024-01-25T10:39:24;27.58;;;2.17;;
76865;SDS011;66647;52.124;5.416;2024-01-25T10:41:55;16.55;;;2.70;;
76865;SDS011;66647;52.124;5.416;2024-01-25T10:44:26;16.88;;;2.63;;
76865;SDS011;66647;52.124;5.416;2024-01-25T10:46:53;15.18;;;2.05;;
76865;SDS011;66647;52.124;5.416;2024-01-25T10:49:23;13.52;;;2.38;;
76865;SDS011;66647;52.124;5.416;2024-01-25T10:51:52;29.80;;;5.90;;
76865;SDS011;66647;52.124;5.416;2024-01-25T10:54:22;23.38;;;4.15;;
76865;SDS011;66647;52.124;5.416;2024-01-25T10:56:49;17.10;;;2.15;;
76865;SDS011;66647;52.124;5.416;2024-01-25T10:59:18;16.80;;;3.13;;
76865;SDS011;66647;52.124;5.416;2024-01-25T11:01:45;16.75;;;2.20;;
76865;SDS011;66647;52.124;5.416;2024-01-25T11:04:22;15.77;;;1.60;;
76865;SDS011;66647;52.124;5.416;2024-01-25T11:06:50;26.92;;;2.55;;
76865;SDS011;66647;52.124;5.416;2024-01-25T11:09:18;18.10;;;1.52;;
76865;SDS011;66647;52.124;5.416;2024-01-25T11:11:49;15.00;;;1.30;;
76865;SDS011;66647;52.124;5.416;2024-01-25T11:14:16;16.55;;;1.50;;
76865;SDS011;66647;52.124;5.416;2024-01-25T11:16:46;12.30;;;2.13;;
76865;SDS011;66647;52.124;5.416;2024-01-25T11:19:20;17.85;;;1.70;;
76865;SDS011;66647;52.124;5.416;2024-01-25T11:21:51;20.25;;;3.33;;
76865;SDS011;66647;52.124;5.416;2024-01-25T11:24:20;14.70;;;2.05;;
76865;SDS011;66647;52.124;5.416;2024-01-25T11:26:48;20.48;;;3.55;;
76865;SDS011;66647;52.124;5.416;2024-01-25T11:29:16;16.75;;;2.28;;
76865;SDS011;66647;52.124;5.416;2024-01-25T11:31:45;17.80;;;3.00;;
76865;SDS011;66647;52.124;5.416;2024-01-25T11:34:13;23.48;;;2.22;;
76865;SDS011;66647;52.124;5.416;2024-01-25T11:36:42;14.57;;;2.08;;
76865;SDS011;66647;52.124;5.416;2024-01-25T11:39:13;17.98;;;1.90;;
76865;SDS011;66647;52.124;5.416;2024-01-25T11:41:44;17.48;;;2.40;;
76865;SDS011;66647;52.124;5.416;2024-01-25T11:44:12;18.98;;;1.63;;
76865;SDS011;66647;52.124;5.416;2024-01-25T11:46:42;16.88;;;1.85;;
76865;SDS011;66647;52.124;5.416;2024-01-25T11:49:13;16.02;;;1.73;;
76865;SDS011;66647;52.124;5.416;2024-01-25T11:55:25;12.80;;;2.10;;
76865;SDS011;66647;52.124;5.416;2024-01-25T11:57:52;10.93;;;1.67;;
76865;SDS011;66647;52.124;5.416;2024-01-25T12:00:47;12.60;;;1.60;;
76865;SDS011;66647;52.124;5.416;2024-01-25T12:03:38;13.25;;;1.83;;
76865;SDS011;66647;52.124;5.416;2024-01-25T12:06:06;17.50;;;3.17;;
76865;SDS011;66647;52.124;5.416;2024-01-25T12:08:54;22.52;;;2.42;;
76865;SDS011;66647;52.124;5.416;2024-01-25T12:11:20;15.25;;;2.78;;
76865;SDS011;66647;52.124;5.416;2024-01-25T12:13:49;17.08;;;2.13;;
76865;SDS011;66647;52.124;5.416;2024-01-25T12:16:15;14.80;;;2.30;;
76865;SDS011;66647;52.124;5.416;2024-01-25T12:18:48;25.27;;;2.33;;
76865;SDS011;66647;52.124;5.416;2024-01-25T12:21:15;19.73;;;2.03;;
76865;SDS011;66647;52.124;5.416;2024-01-25T12:23:42;23.52;;;3.92;;
76865;SDS011;66647;52.124;5.416;2024-01-25T12:26:10;17.77;;;3.03;;
76865;SDS011;66647;52.124;5.416;2024-01-25T12:28:42;12.80;;;1.73;;
76865;SDS011;66647;52.124;5.416;2024-01-25T12:31:10;17.20;;;2.15;;
76865;SDS011;66647;52.124;5.416;2024-01-25T12:33:41;23.90;;;2.22;;
76865;SDS011;66647;52.124;5.416;2024-01-25T12:36:10;18.80;;;2.60;;
76865;SDS011;66647;52.124;5.416;2024-01-25T12:38:44;18.70;;;2.55;;
76865;SDS011;66647;52.124;5.416;2024-01-25T12:41:15;20.35;;;2.33;;
76865;SDS011;66647;52.124;5.416;2024-01-25T12:43:52;21.70;;;3.38;;
76865;SDS011;66647;52.124;5.416;2024-01-25T12:46:25;10.55;;;1.92;;
76865;SDS011;66647;52.124;5.416;2024-01-25T12:49:25;21.20;;;3.03;;
76865;SDS011;66647;52.124;5.416;2024-01-25T12:51:51;23.05;;;2.47;;
76865;SDS011;66647;52.124;5.416;2024-01-25T12:54:19;20.10;;;2.45;;
76865;SDS011;66647;52.124;5.416;2024-01-25T12:57:07;19.27;;;3.40;;
76865;SDS011;66647;52.124;5.416;2024-01-25T12:59:34;19.35;;;2.95;;
76865;SDS011;66647;52.124;5.416;2024-01-25T13:02:04;15.20;;;1.98;;
76865;SDS011;66647;52.124;5.416;2024-01-25T13:04:36;11.80;;;2.75;;
76865;SDS011;66647;52.124;5.416;2024-01-25T13:07:03;14.30;;;2.97;;
76865;SDS011;66647;52.124;5.416;2024-01-25T13:09:30;21.02;;;2.92;;
76865;SDS011;66647;52.124;5.416;2024-01-25T13:12:00;21.08;;;3.13;;
76865;SDS011;66647;52.124;5.416;2024-01-25T13:14:27;19.50;;;2.08;;
76865;SDS011;66647;52.124;5.416;2024-01-25T13:16:59;14.13;;;2.78;;
76865;SDS011;66647;52.124;5.416;2024-01-25T13:19:25;17.95;;;3.20;;
76865;SDS011;66647;52.124;5.416;2024-01-25T13:21:54;22.77;;;3.10;;
76865;SDS011;66647;52.124;5.416;2024-01-25T13:24:21;20.15;;;4.03;;
76865;SDS011;66647;52.124;5.416;2024-01-25T13:26:47;21.27;;;2.95;;
76865;SDS011;66647;52.124;5.416;2024-01-25T13:29:14;15.07;;;2.42;;
76865;SDS011;66647;52.124;5.416;2024-01-25T13:31:41;20.27;;;3.17;;
76865;SDS011;66647;52.124;5.416;2024-01-25T13:34:09;16.83;;;3.47;;
76865;SDS011;66647;52.124;5.416;2024-01-25T13:36:36;17.42;;;2.58;;
76865;SDS011;66647;52.124;5.416;2024-01-25T13:39:03;16.67;;;2.50;;
76865;SDS011;66647;52.124;5.416;2024-01-25T13:41:32;22.80;;;4.13;;
76865;SDS011;66647;52.124;5.416;2024-01-25T13:43:59;18.60;;;3.05;;
76865;SDS011;66647;52.124;5.416;2024-01-25T13:46:25;16.60;;;1.95;;
76865;SDS011;66647;52.124;5.416;2024-01-25T13:48:52;20.92;;;3.30;;
76865;SDS011;66647;52.124;5.416;2024-01-25T13:51:19;26.55;;;5.45;;
76865;SDS011;66647;52.124;5.416;2024-01-25T13:53:45;30.00;;;4.03;;
76865;SDS011;66647;52.124;5.416;2024-01-25T13:56:15;21.30;;;3.60;;
76865;SDS011;66647;52.124;5.416;2024-01-25T13:58:45;23.10;;;3.50;;
76865;SDS011;66647;52.124;5.416;2024-01-25T14:01:14;22.77;;;3.78;;
76865;SDS011;66647;52.124;5.416;2024-01-25T14:03:41;21.80;;;4.45;;
76865;SDS011;66647;52.124;5.416;2024-01-25T14:06:11;21.20;;;4.03;;
76865;SDS011;66647;52.124;5.416;2024-01-25T14:08:39;20.40;;;3.28;;
76865;SDS011;66647;52.124;5.416;2024-01-25T14:11:09;19.05;;;3.28;;
76865;SDS011;66647;52.124;5.416;2024-01-25T14:13:39;25.40;;;5.20;;
76865;SDS011;66647;52.124;5.416;2024-01-25T14:16:06;20.17;;;3.92;;
76865;SDS011;66647;52.124;5.416;2024-01-25T14:18:51;22.88;;;5.18;;
76865;SDS011;66647;52.124;5.416;2024-01-25T14:21:19;15.77;;;3.17;;
76865;SDS011;66647;52.124;5.416;2024-01-25T14:23:48;19.42;;;5.10;;
76865;SDS011;66647;52.124;5.416;2024-01-25T14:26:16;23.80;;;4.32;;
76865;SDS011;66647;52.124;5.416;2024-01-25T14:28:44;23.65;;;3.72;;
76865;SDS011;66647;52.124;5.416;2024-01-25T14:31:14;26.63;;;5.18;;
76865;SDS011;66647;52.124;5.416;2024-01-25T14:33:40;19.33;;;5.13;;
76865;SDS011;66647;52.124;5.416;2024-01-25T14:36:12;20.30;;;3.70;;
76865;SDS011;66647;52.124;5.416;2024-01-25T14:38:40;23.05;;;4.05;;
76865;SDS011;66647;52.124;5.416;2024-01-25T14:41:10;30.27;;;4.68;;
76865;SDS011;66647;52.124;5.416;2024-01-25T14:43:38;29.80;;;5.40;;
76865;SDS011;66647;52.124;5.416;2024-01-25T14:46:07;21.20;;;4.40;;
76865;SDS011;66647;52.124;5.416;2024-01-25T14:48:34;29.60;;;4.70;;
76865;SDS011;66647;52.124;5.416;2024-01-25T14:51:01;18.48;;;4.95;;
76865;SDS011;66647;52.124;5.416;2024-01-25T14:53:28;22.20;;;3.92;;